sensor_id;sensor_type;location;lat;lon;timestamp;P1;durP1;ratioP1;P2;durP2;ratioP2
24859;SDS011;12936;52.006;4.350;2022-10-16T00:01:34;2.25;;;0.90;;
24859;SDS011;12936;52.006;4.350;2022-10-16T00:04:04;4.07;;;1.00;;
24859;SDS011;12936;52.006;4.350;2022-10-16T00:06:32;2.00;;;0.98;;
24859;SDS011;12936;52.006;4.350;2022-10-16T00:09:01;2.73;;;0.90;;
24859;SDS011;12936;52.006;4.350;2022-10-16T00:11:30;6.07;;;1.10;;
24859;SDS011;12936;52.006;4.350;2022-10-16T00:14:00;5.05;;;1.10;;
24859;SDS011;12936;52.006;4.350;2022-10-16T00:16:29;4.20;;;1.02;;
24859;SDS011;12936;52.006;4.350;2022-10-16T00:18:57;3.92;;;1.00;;
24859;SDS011;12936;52.006;4.350;2022-10-16T00:21:28;3.50;;;0.95;;
24859;SDS011;12936;52.006;4.350;2022-10-16T00:23:57;3.27;;;1.00;;
24859;SDS011;12936;52.006;4.350;2022-10-16T00:26:26;1.40;;;0.90;;
24859;SDS011;12936;52.006;4.350;2022-10-16T00:28:55;1.90;;;0.83;;
24859;SDS011;12936;52.006;4.350;2022-10-16T00:31:23;2.43;;;0.73;;
24859;SDS011;12936;52.006;4.350;2022-10-16T00:33:52;2.63;;;1.00;;
24859;SDS011;12936;52.006;4.350;2022-10-16T00:36:21;2.75;;;0.63;;
24859;SDS011;12936;52.006;4.350;2022-10-16T00:38:51;3.60;;;0.73;;
24859;SDS011;12936;52.006;4.350;2022-10-16T00:41:21;2.03;;;0.60;;
24859;SDS011;12936;52.006;4.350;2022-10-16T00:43:51;2.83;;;0.70;;
24859;SDS011;12936;52.006;4.350;2022-10-16T00:46:20;6.10;;;0.80;;
24859;SDS011;12936;52.006;4.350;2022-10-16T00:48:50;3.07;;;0.73;;
24859;SDS011;12936;52.006;4.350;2022-10-16T00:51:20;4.22;;;0.85;;
24859;SDS011;12936;52.006;4.350;2022-10-16T00:53:49;3.50;;;1.00;;
24859;SDS011;12936;52.006;4.350;2022-10-16T00:56:19;2.33;;;1.23;;
24859;SDS011;12936;52.006;4.350;2022-10-16T00:58:48;2.20;;;0.90;;
24859;SDS011;12936;52.006;4.350;2022-10-16T01:01:16;3.15;;;0.95;;
24859;SDS011;12936;52.006;4.350;2022-10-16T01:03:44;3.78;;;0.93;;
24859;SDS011;12936;52.006;4.350;2022-10-16T01:06:20;2.75;;;0.88;;
24859;SDS011;12936;52.006;4.350;2022-10-16T01:09:04;5.65;;;1.15;;
24859;SDS011;12936;52.006;4.350;2022-10-16T01:11:38;7.18;;;1.73;;
24859;SDS011;12936;52.006;4.350;2022-10-16T01:14:11;3.10;;;1.08;;
24859;SDS011;12936;52.006;4.350;2022-10-16T01:16:43;1.33;;;0.93;;
24859;SDS011;12936;52.006;4.350;2022-10-16T01:19:13;2.43;;;1.23;;
24859;SDS011;12936;52.006;4.350;2022-10-16T01:21:44;2.47;;;0.93;;
24859;SDS011;12936;52.006;4.350;2022-10-16T01:24:17;6.72;;;1.17;;
24859;SDS011;12936;52.006;4.350;2022-10-16T01:29:22;2.80;;;1.40;;
24859;SDS011;12936;52.006;4.350;2022-10-16T01:31:53;4.80;;;1.42;;
24859;SDS011;12936;52.006;4.350;2022-10-16T01:34:23;2.57;;;1.30;;
24859;SDS011;12936;52.006;4.350;2022-10-16T01:36:54;1.55;;;1.00;;
24859;SDS011;12936;52.006;4.350;2022-10-16T01:39:24;2.57;;;1.03;;
24859;SDS011;12936;52.006;4.350;2022-10-16T01:41:54;3.47;;;1.10;;
24859;SDS011;12936;52.006;4.350;2022-10-16T01:44:28;1.67;;;0.77;;
24859;SDS011;12936;52.006;4.350;2022-10-16T01:46:57;4.73;;;1.23;;
24859;SDS011;12936;52.006;4.350;2022-10-16T01:49:27;5.05;;;0.90;;
24859;SDS011;12936;52.006;4.350;2022-10-16T01:51:58;2.03;;;0.90;;
24859;SDS011;12936;52.006;4.350;2022-10-16T01:54:27;1.20;;;1.00;;
24859;SDS011;12936;52.006;4.350;2022-10-16T01:56:56;4.18;;;1.40;;
24859;SDS011;12936;52.006;4.350;2022-10-16T01:59:27;1.75;;;1.27;;
24859;SDS011;12936;52.006;4.350;2022-10-16T02:01:59;2.20;;;1.30;;
24859;SDS011;12936;52.006;4.350;2022-10-16T02:04:30;3.45;;;1.33;;
24859;SDS011;12936;52.006;4.350;2022-10-16T02:06:59;3.20;;;1.20;;
24859;SDS011;12936;52.006;4.350;2022-10-16T02:09:28;6.37;;;1.10;;
24859;SDS011;12936;52.006;4.350;2022-10-16T02:11:57;1.87;;;1.23;;
24859;SDS011;12936;52.006;4.350;2022-10-16T02:14:30;4.15;;;1.25;;
24859;SDS011;12936;52.006;4.350;2022-10-16T02:16:58;2.77;;;1.50;;
24859;SDS011;12936;52.006;4.350;2022-10-16T02:19:26;2.72;;;1.38;;
24859;SDS011;12936;52.006;4.350;2022-10-16T02:21:56;2.30;;;1.25;;
24859;SDS011;12936;52.006;4.350;2022-10-16T02:24:26;3.97;;;1.70;;
24859;SDS011;12936;52.006;4.350;2022-10-16T02:26:57;5.73;;;1.50;;
24859;SDS011;12936;52.006;4.350;2022-10-16T02:29:31;3.40;;;1.50;;
24859;SDS011;12936;52.006;4.350;2022-10-16T02:32:01;1.90;;;1.30;;
24859;SDS011;12936;52.006;4.350;2022-10-16T02:34:31;1.70;;;1.27;;
24859;SDS011;12936;52.006;4.350;2022-10-16T02:37:00;5.10;;;1.60;;
24859;SDS011;12936;52.006;4.350;2022-10-16T02:39:29;4.43;;;1.23;;
24859;SDS011;12936;52.006;4.350;2022-10-16T02:41:57;3.40;;;1.60;;
24859;SDS011;12936;52.006;4.350;2022-10-16T02:44:26;1.93;;;1.10;;
24859;SDS011;12936;52.006;4.350;2022-10-16T02:46:55;2.25;;;1.38;;
24859;SDS011;12936;52.006;4.350;2022-10-16T02:49:23;2.97;;;1.27;;
24859;SDS011;12936;52.006;4.350;2022-10-16T02:51:52;7.13;;;1.30;;
24859;SDS011;12936;52.006;4.350;2022-10-16T02:54:20;2.53;;;1.20;;
24859;SDS011;12936;52.006;4.350;2022-10-16T02:56:49;5.00;;;1.40;;
24859;SDS011;12936;52.006;4.350;2022-10-16T02:59:18;3.07;;;1.40;;
24859;SDS011;12936;52.006;4.350;2022-10-16T03:01:46;3.30;;;1.47;;
24859;SDS011;12936;52.006;4.350;2022-10-16T03:04:16;3.57;;;1.27;;
24859;SDS011;12936;52.006;4.350;2022-10-16T03:06:44;9.50;;;1.60;;
24859;SDS011;12936;52.006;4.350;2022-10-16T03:09:12;3.78;;;1.50;;
24859;SDS011;12936;52.006;4.350;2022-10-16T03:11:41;5.73;;;1.30;;
24859;SDS011;12936;52.006;4.350;2022-10-16T03:14:09;2.88;;;1.20;;
24859;SDS011;12936;52.006;4.350;2022-10-16T03:16:37;3.65;;;1.48;;
24859;SDS011;12936;52.006;4.350;2022-10-16T03:19:05;2.40;;;0.85;;
24859;SDS011;12936;52.006;4.350;2022-10-16T03:21:35;3.90;;;1.10;;
24859;SDS011;12936;52.006;4.350;2022-10-16T03:24:04;7.13;;;1.20;;
24859;SDS011;12936;52.006;4.350;2022-10-16T03:26:32;1.80;;;0.90;;
24859;SDS011;12936;52.006;4.350;2022-10-16T03:29:00;2.20;;;1.10;;
24859;SDS011;12936;52.006;4.350;2022-10-16T03:31:29;4.33;;;1.50;;
24859;SDS011;12936;52.006;4.350;2022-10-16T03:33:58;4.60;;;1.10;;
24859;SDS011;12936;52.006;4.350;2022-10-16T03:36:26;3.73;;;1.10;;
24859;SDS011;12936;52.006;4.350;2022-10-16T03:38:56;5.35;;;1.08;;
24859;SDS011;12936;52.006;4.350;2022-10-16T03:41:24;3.83;;;1.02;;
24859;SDS011;12936;52.006;4.350;2022-10-16T03:43:52;7.53;;;0.90;;
24859;SDS011;12936;52.006;4.350;2022-10-16T03:46:20;3.50;;;1.10;;
24859;SDS011;12936;52.006;4.350;2022-10-16T03:48:49;3.50;;;1.20;;
24859;SDS011;12936;52.006;4.350;2022-10-16T03:51:17;3.63;;;1.17;;
24859;SDS011;12936;52.006;4.350;2022-10-16T03:53:45;3.67;;;0.93;;
24859;SDS011;12936;52.006;4.350;2022-10-16T03:56:15;2.17;;;1.00;;
24859;SDS011;12936;52.006;4.350;2022-10-16T03:58:43;4.43;;;1.00;;
24859;SDS011;12936;52.006;4.350;2022-10-16T04:01:12;5.90;;;1.00;;
24859;SDS011;12936;52.006;4.350;2022-10-16T04:03:40;4.60;;;0.80;;
24859;SDS011;12936;52.006;4.350;2022-10-16T04:06:08;3.33;;;0.93;;
24859;SDS011;12936;52.006;4.350;2022-10-16T04:08:37;2.38;;;1.10;;
24859;SDS011;12936;52.006;4.350;2022-10-16T04:11:05;2.70;;;0.90;;
24859;SDS011;12936;52.006;4.350;2022-10-16T04:13:35;2.58;;;1.30;;
24859;SDS011;12936;52.006;4.350;2022-10-16T04:16:03;4.90;;;1.13;;
24859;SDS011;12936;52.006;4.350;2022-10-16T04:18:32;4.90;;;1.25;;
24859;SDS011;12936;52.006;4.350;2022-10-16T04:21:04;2.60;;;0.90;;
24859;SDS011;12936;52.006;4.350;2022-10-16T04:23:33;5.33;;;1.00;;
24859;SDS011;12936;52.006;4.350;2022-10-16T04:26:01;2.97;;;1.00;;
24859;SDS011;12936;52.006;4.350;2022-10-16T04:28:29;5.63;;;1.30;;
24859;SDS011;12936;52.006;4.350;2022-10-16T04:30:59;2.70;;;1.33;;
24859;SDS011;12936;52.006;4.350;2022-10-16T04:33:27;2.80;;;1.23;;
24859;SDS011;12936;52.006;4.350;2022-10-16T04:35:56;5.13;;;1.20;;
24859;SDS011;12936;52.006;4.350;2022-10-16T04:38:24;4.80;;;1.43;;
24859;SDS011;12936;52.006;4.350;2022-10-16T04:40:53;5.67;;;1.23;;
24859;SDS011;12936;52.006;4.350;2022-10-16T04:43:21;5.63;;;1.00;;
24859;SDS011;12936;52.006;4.350;2022-10-16T04:45:50;2.53;;;1.00;;
24859;SDS011;12936;52.006;4.350;2022-10-16T04:48:20;3.13;;;1.30;;
24859;SDS011;12936;52.006;4.350;2022-10-16T04:50:48;3.37;;;1.20;;
24859;SDS011;12936;52.006;4.350;2022-10-16T04:53:20;2.07;;;1.30;;
24859;SDS011;12936;52.006;4.350;2022-10-16T04:55:48;4.77;;;1.33;;
24859;SDS011;12936;52.006;4.350;2022-10-16T04:58:17;6.53;;;1.40;;
24859;SDS011;12936;52.006;4.350;2022-10-16T05:00:45;7.80;;;1.55;;
24859;SDS011;12936;52.006;4.350;2022-10-16T05:03:13;5.53;;;1.50;;
24859;SDS011;12936;52.006;4.350;2022-10-16T05:05:43;6.37;;;1.20;;
24859;SDS011;12936;52.006;4.350;2022-10-16T05:08:12;4.57;;;0.90;;
24859;SDS011;12936;52.006;4.350;2022-10-16T05:10:41;5.03;;;1.27;;
24859;SDS011;12936;52.006;4.350;2022-10-16T05:13:09;3.97;;;1.00;;
24859;SDS011;12936;52.006;4.350;2022-10-16T05:15:38;4.85;;;1.27;;
24859;SDS011;12936;52.006;4.350;2022-10-16T05:18:06;5.73;;;1.53;;
24859;SDS011;12936;52.006;4.350;2022-10-16T05:20:34;2.35;;;1.15;;
24859;SDS011;12936;52.006;4.350;2022-10-16T05:23:04;4.23;;;1.30;;
24859;SDS011;12936;52.006;4.350;2022-10-16T05:25:32;4.18;;;1.52;;
24859;SDS011;12936;52.006;4.350;2022-10-16T05:28:00;2.50;;;1.27;;
24859;SDS011;12936;52.006;4.350;2022-10-16T05:30:29;3.97;;;1.40;;
24859;SDS011;12936;52.006;4.350;2022-10-16T05:32:57;4.03;;;1.30;;
24859;SDS011;12936;52.006;4.350;2022-10-16T05:35:25;2.90;;;1.20;;
24859;SDS011;12936;52.006;4.350;2022-10-16T05:37:53;3.03;;;1.20;;
24859;SDS011;12936;52.006;4.350;2022-10-16T05:40:23;3.40;;;1.27;;
24859;SDS011;12936;52.006;4.350;2022-10-16T05:42:54;5.50;;;1.60;;
24859;SDS011;12936;52.006;4.350;2022-10-16T05:45:22;5.07;;;1.67;;
24859;SDS011;12936;52.006;4.350;2022-10-16T05:47:50;5.60;;;1.20;;
24859;SDS011;12936;52.006;4.350;2022-10-16T05:50:19;3.67;;;1.25;;
24859;SDS011;12936;52.006;4.350;2022-10-16T05:52:47;4.63;;;1.20;;
24859;SDS011;12936;52.006;4.350;2022-10-16T05:55:16;2.37;;;1.20;;
24859;SDS011;12936;52.006;4.350;2022-10-16T05:57:45;4.13;;;1.40;;
24859;SDS011;12936;52.006;4.350;2022-10-16T06:00:14;5.18;;;1.50;;
24859;SDS011;12936;52.006;4.350;2022-10-16T06:02:42;7.93;;;1.40;;
24859;SDS011;12936;52.006;4.350;2022-10-16T06:05:10;3.38;;;1.40;;
24859;SDS011;12936;52.006;4.350;2022-10-16T06:07:39;3.78;;;1.10;;
24859;SDS011;12936;52.006;4.350;2022-10-16T06:10:07;4.78;;;1.20;;
24859;SDS011;12936;52.006;4.350;2022-10-16T06:12:36;6.13;;;1.30;;
24859;SDS011;12936;52.006;4.350;2022-10-16T06:15:06;2.90;;;1.20;;
24859;SDS011;12936;52.006;4.350;2022-10-16T06:17:35;6.83;;;1.20;;
24859;SDS011;12936;52.006;4.350;2022-10-16T06:20:03;6.77;;;1.20;;
24859;SDS011;12936;52.006;4.350;2022-10-16T06:22:31;5.10;;;1.17;;
24859;SDS011;12936;52.006;4.350;2022-10-16T06:25:00;5.60;;;1.23;;
24859;SDS011;12936;52.006;4.350;2022-10-16T06:27:28;5.90;;;1.30;;
24859;SDS011;12936;52.006;4.350;2022-10-16T06:29:56;4.20;;;0.97;;
24859;SDS011;12936;52.006;4.350;2022-10-16T06:32:26;4.53;;;1.50;;
24859;SDS011;12936;52.006;4.350;2022-10-16T06:34:55;4.00;;;0.97;;
24859;SDS011;12936;52.006;4.350;2022-10-16T06:37:23;7.90;;;1.17;;
24859;SDS011;12936;52.006;4.350;2022-10-16T06:39:52;12.77;;;1.10;;
24859;SDS011;12936;52.006;4.350;2022-10-16T06:42:20;7.70;;;1.07;;
24859;SDS011;12936;52.006;4.350;2022-10-16T06:44:49;4.60;;;1.27;;
24859;SDS011;12936;52.006;4.350;2022-10-16T06:47:17;4.77;;;1.30;;
24859;SDS011;12936;52.006;4.350;2022-10-16T06:49:47;5.10;;;1.13;;
24859;SDS011;12936;52.006;4.350;2022-10-16T06:52:19;4.40;;;1.10;;
24859;SDS011;12936;52.006;4.350;2022-10-16T06:54:47;4.23;;;1.20;;
24859;SDS011;12936;52.006;4.350;2022-10-16T06:57:17;7.83;;;1.60;;
24859;SDS011;12936;52.006;4.350;2022-10-16T06:59:45;8.97;;;1.50;;
24859;SDS011;12936;52.006;4.350;2022-10-16T07:02:18;1.77;;;0.90;;
24859;SDS011;12936;52.006;4.350;2022-10-16T07:04:48;6.50;;;1.00;;
24859;SDS011;12936;52.006;4.350;2022-10-16T07:07:16;3.63;;;0.70;;
24859;SDS011;12936;52.006;4.350;2022-10-16T07:09:44;3.35;;;1.40;;
24859;SDS011;12936;52.006;4.350;2022-10-16T07:12:12;3.30;;;1.20;;
24859;SDS011;12936;52.006;4.350;2022-10-16T07:14:41;2.90;;;1.20;;
24859;SDS011;12936;52.006;4.350;2022-10-16T07:17:09;5.73;;;1.27;;
24859;SDS011;12936;52.006;4.350;2022-10-16T07:19:37;5.80;;;1.33;;
24859;SDS011;12936;52.006;4.350;2022-10-16T07:22:07;5.27;;;1.33;;
24859;SDS011;12936;52.006;4.350;2022-10-16T07:24:35;7.73;;;1.33;;
24859;SDS011;12936;52.006;4.350;2022-10-16T07:27:03;5.57;;;1.30;;
24859;SDS011;12936;52.006;4.350;2022-10-16T07:29:32;4.60;;;1.30;;
24859;SDS011;12936;52.006;4.350;2022-10-16T07:32:01;4.73;;;1.20;;
24859;SDS011;12936;52.006;4.350;2022-10-16T07:34:29;4.07;;;1.20;;
24859;SDS011;12936;52.006;4.350;2022-10-16T07:36:58;8.97;;;1.30;;
24859;SDS011;12936;52.006;4.350;2022-10-16T07:39:27;5.57;;;1.30;;
24859;SDS011;12936;52.006;4.350;2022-10-16T07:41:56;7.20;;;1.23;;
24859;SDS011;12936;52.006;4.350;2022-10-16T07:44:24;4.43;;;1.10;;
24859;SDS011;12936;52.006;4.350;2022-10-16T07:46:52;7.13;;;1.27;;
24859;SDS011;12936;52.006;4.350;2022-10-16T07:49:21;5.32;;;1.10;;
24859;SDS011;12936;52.006;4.350;2022-10-16T07:51:49;10.23;;;1.77;;
24859;SDS011;12936;52.006;4.350;2022-10-16T07:54:17;7.07;;;1.40;;
24859;SDS011;12936;52.006;4.350;2022-10-16T07:56:47;6.15;;;1.25;;
24859;SDS011;12936;52.006;4.350;2022-10-16T07:59:15;5.27;;;1.57;;
24859;SDS011;12936;52.006;4.350;2022-10-16T08:01:43;8.02;;;1.50;;
24859;SDS011;12936;52.006;4.350;2022-10-16T08:04:12;4.53;;;1.02;;
24859;SDS011;12936;52.006;4.350;2022-10-16T08:06:40;8.73;;;1.40;;
24859;SDS011;12936;52.006;4.350;2022-10-16T08:09:09;8.10;;;1.25;;
24859;SDS011;12936;52.006;4.350;2022-10-16T08:11:37;9.00;;;1.40;;
24859;SDS011;12936;52.006;4.350;2022-10-16T08:14:07;7.90;;;1.40;;
24859;SDS011;12936;52.006;4.350;2022-10-16T08:16:35;8.73;;;1.63;;
24859;SDS011;12936;52.006;4.350;2022-10-16T08:19:03;7.73;;;1.70;;
24859;SDS011;12936;52.006;4.350;2022-10-16T08:21:31;9.57;;;1.40;;
24859;SDS011;12936;52.006;4.350;2022-10-16T08:24:00;12.32;;;2.05;;
24859;SDS011;12936;52.006;4.350;2022-10-16T08:26:28;10.07;;;1.70;;
24859;SDS011;12936;52.006;4.350;2022-10-16T08:28:56;9.63;;;1.80;;
24859;SDS011;12936;52.006;4.350;2022-10-16T08:31:26;6.13;;;1.42;;
24859;SDS011;12936;52.006;4.350;2022-10-16T08:33:54;6.00;;;1.27;;
24859;SDS011;12936;52.006;4.350;2022-10-16T08:36:23;8.90;;;1.20;;
24859;SDS011;12936;52.006;4.350;2022-10-16T08:38:51;8.68;;;1.85;;
24859;SDS011;12936;52.006;4.350;2022-10-16T08:41:29;11.00;;;1.90;;
24859;SDS011;12936;52.006;4.350;2022-10-16T08:44:09;9.83;;;1.50;;
24859;SDS011;12936;52.006;4.350;2022-10-16T08:46:43;9.60;;;1.70;;
24859;SDS011;12936;52.006;4.350;2022-10-16T08:49:16;10.27;;;1.50;;
24859;SDS011;12936;52.006;4.350;2022-10-16T08:51:44;10.77;;;1.40;;
24859;SDS011;12936;52.006;4.350;2022-10-16T08:54:20;7.87;;;1.40;;
24859;SDS011;12936;52.006;4.350;2022-10-16T08:56:49;11.90;;;2.00;;
24859;SDS011;12936;52.006;4.350;2022-10-16T08:59:17;7.90;;;1.35;;
24859;SDS011;12936;52.006;4.350;2022-10-16T09:01:49;7.53;;;1.58;;
24859;SDS011;12936;52.006;4.350;2022-10-16T09:07:01;11.23;;;1.90;;
24859;SDS011;12936;52.006;4.350;2022-10-16T09:09:37;14.00;;;1.60;;
24859;SDS011;12936;52.006;4.350;2022-10-16T09:12:12;10.27;;;1.80;;
24859;SDS011;12936;52.006;4.350;2022-10-16T09:14:47;15.82;;;1.83;;
24859;SDS011;12936;52.006;4.350;2022-10-16T09:17:22;7.47;;;1.50;;
24859;SDS011;12936;52.006;4.350;2022-10-16T09:19:56;11.15;;;1.95;;
24859;SDS011;12936;52.006;4.350;2022-10-16T09:22:27;10.63;;;2.08;;
24859;SDS011;12936;52.006;4.350;2022-10-16T09:24:57;7.78;;;1.85;;
24859;SDS011;12936;52.006;4.350;2022-10-16T09:27:27;10.27;;;1.88;;
24859;SDS011;12936;52.006;4.350;2022-10-16T09:29:56;10.88;;;2.03;;
24859;SDS011;12936;52.006;4.350;2022-10-16T09:32:28;7.63;;;1.48;;
24859;SDS011;12936;52.006;4.350;2022-10-16T09:34:58;8.10;;;1.30;;
24859;SDS011;12936;52.006;4.350;2022-10-16T09:37:26;16.58;;;1.92;;
24859;SDS011;12936;52.006;4.350;2022-10-16T09:39:55;7.80;;;1.60;;
24859;SDS011;12936;52.006;4.350;2022-10-16T09:42:26;15.25;;;2.30;;
24859;SDS011;12936;52.006;4.350;2022-10-16T09:44:55;12.63;;;2.00;;
24859;SDS011;12936;52.006;4.350;2022-10-16T09:47:25;10.23;;;1.98;;
24859;SDS011;12936;52.006;4.350;2022-10-16T09:49:56;15.10;;;2.08;;
24859;SDS011;12936;52.006;4.350;2022-10-16T09:52:28;8.75;;;1.98;;
24859;SDS011;12936;52.006;4.350;2022-10-16T09:54:57;7.95;;;1.58;;
24859;SDS011;12936;52.006;4.350;2022-10-16T09:57:25;11.52;;;1.60;;
24859;SDS011;12936;52.006;4.350;2022-10-16T09:59:56;9.85;;;1.65;;
24859;SDS011;12936;52.006;4.350;2022-10-16T10:02:27;10.18;;;1.73;;
24859;SDS011;12936;52.006;4.350;2022-10-16T10:04:58;10.70;;;1.65;;
24859;SDS011;12936;52.006;4.350;2022-10-16T10:07:27;9.52;;;1.80;;
24859;SDS011;12936;52.006;4.350;2022-10-16T10:09:58;12.27;;;1.92;;
24859;SDS011;12936;52.006;4.350;2022-10-16T10:12:27;8.00;;;1.85;;
24859;SDS011;12936;52.006;4.350;2022-10-16T10:14:57;10.60;;;2.28;;
24859;SDS011;12936;52.006;4.350;2022-10-16T10:17:26;9.95;;;1.80;;
24859;SDS011;12936;52.006;4.350;2022-10-16T10:19:55;12.85;;;1.75;;
24859;SDS011;12936;52.006;4.350;2022-10-16T10:22:27;15.50;;;2.70;;
24859;SDS011;12936;52.006;4.350;2022-10-16T10:24:57;11.70;;;1.63;;
24859;SDS011;12936;52.006;4.350;2022-10-16T10:27:30;10.85;;;1.55;;
24859;SDS011;12936;52.006;4.350;2022-10-16T10:30:01;17.92;;;2.42;;
24859;SDS011;12936;52.006;4.350;2022-10-16T10:32:32;12.52;;;1.92;;
24859;SDS011;12936;52.006;4.350;2022-10-16T10:35:11;14.63;;;2.15;;
24859;SDS011;12936;52.006;4.350;2022-10-16T10:37:47;8.20;;;1.65;;
24859;SDS011;12936;52.006;4.350;2022-10-16T10:40:23;12.68;;;1.60;;
24859;SDS011;12936;52.006;4.350;2022-10-16T10:42:57;10.98;;;1.55;;
24859;SDS011;12936;52.006;4.350;2022-10-16T10:45:28;14.35;;;1.98;;
24859;SDS011;12936;52.006;4.350;2022-10-16T10:48:05;11.70;;;1.80;;
24859;SDS011;12936;52.006;4.350;2022-10-16T10:50:39;12.57;;;1.85;;
24859;SDS011;12936;52.006;4.350;2022-10-16T10:53:15;9.27;;;1.88;;
24859;SDS011;12936;52.006;4.350;2022-10-16T10:55:47;10.48;;;2.03;;
24859;SDS011;12936;52.006;4.350;2022-10-16T10:58:24;11.02;;;1.85;;
24859;SDS011;12936;52.006;4.350;2022-10-16T11:01:01;12.10;;;1.55;;
24859;SDS011;12936;52.006;4.350;2022-10-16T11:03:33;8.35;;;1.70;;
24859;SDS011;12936;52.006;4.350;2022-10-16T11:06:04;11.00;;;1.88;;
24859;SDS011;12936;52.006;4.350;2022-10-16T11:08:37;10.15;;;1.38;;
24859;SDS011;12936;52.006;4.350;2022-10-16T11:11:08;10.18;;;1.77;;
24859;SDS011;12936;52.006;4.350;2022-10-16T11:13:38;14.77;;;1.77;;
24859;SDS011;12936;52.006;4.350;2022-10-16T11:16:11;7.03;;;1.73;;
24859;SDS011;12936;52.006;4.350;2022-10-16T11:18:48;17.25;;;1.65;;
24859;SDS011;12936;52.006;4.350;2022-10-16T11:21:18;10.32;;;1.83;;
24859;SDS011;12936;52.006;4.350;2022-10-16T11:23:51;11.15;;;1.85;;
24859;SDS011;12936;52.006;4.350;2022-10-16T11:26:23;9.23;;;1.65;;
24859;SDS011;12936;52.006;4.350;2022-10-16T11:28:53;10.18;;;1.58;;
24859;SDS011;12936;52.006;4.350;2022-10-16T11:31:24;8.82;;;1.67;;
24859;SDS011;12936;52.006;4.350;2022-10-16T11:34:01;5.68;;;1.10;;
24859;SDS011;12936;52.006;4.350;2022-10-16T11:36:32;11.20;;;1.65;;
24859;SDS011;12936;52.006;4.350;2022-10-16T11:39:04;5.78;;;1.25;;
24859;SDS011;12936;52.006;4.350;2022-10-16T11:41:37;9.23;;;1.67;;
24859;SDS011;12936;52.006;4.350;2022-10-16T11:44:12;11.23;;;1.40;;
24859;SDS011;12936;52.006;4.350;2022-10-16T11:46:43;8.73;;;1.55;;
24859;SDS011;12936;52.006;4.350;2022-10-16T11:49:33;8.75;;;1.10;;
24859;SDS011;12936;52.006;4.350;2022-10-16T11:52:06;7.72;;;1.10;;
24859;SDS011;12936;52.006;4.350;2022-10-16T11:54:38;7.88;;;1.55;;
24859;SDS011;12936;52.006;4.350;2022-10-16T11:57:08;11.45;;;1.55;;
24859;SDS011;12936;52.006;4.350;2022-10-16T11:59:42;6.25;;;1.23;;
24859;SDS011;12936;52.006;4.350;2022-10-16T12:02:22;8.70;;;1.55;;
24859;SDS011;12936;52.006;4.350;2022-10-16T12:04:57;10.00;;;1.20;;
24859;SDS011;12936;52.006;4.350;2022-10-16T12:07:32;8.70;;;1.13;;
24859;SDS011;12936;52.006;4.350;2022-10-16T12:10:10;5.30;;;1.33;;
24859;SDS011;12936;52.006;4.350;2022-10-16T12:12:39;7.57;;;1.23;;
24859;SDS011;12936;52.006;4.350;2022-10-16T12:15:18;7.32;;;1.33;;
24859;SDS011;12936;52.006;4.350;2022-10-16T12:18:07;9.85;;;1.38;;
24859;SDS011;12936;52.006;4.350;2022-10-16T12:20:54;10.60;;;1.70;;
24859;SDS011;12936;52.006;4.350;2022-10-16T12:23:25;10.50;;;2.00;;
24859;SDS011;12936;52.006;4.350;2022-10-16T12:25:55;10.98;;;1.55;;
24859;SDS011;12936;52.006;4.350;2022-10-16T12:28:26;11.40;;;1.75;;
24859;SDS011;12936;52.006;4.350;2022-10-16T12:30:55;12.80;;;1.77;;
24859;SDS011;12936;52.006;4.350;2022-10-16T12:33:25;7.70;;;1.40;;
24859;SDS011;12936;52.006;4.350;2022-10-16T12:35:54;11.10;;;1.17;;
24859;SDS011;12936;52.006;4.350;2022-10-16T12:38:25;8.55;;;1.70;;
24859;SDS011;12936;52.006;4.350;2022-10-16T12:40:56;7.65;;;1.50;;
24859;SDS011;12936;52.006;4.350;2022-10-16T12:43:27;8.02;;;1.50;;
24859;SDS011;12936;52.006;4.350;2022-10-16T12:45:59;14.07;;;1.80;;
24859;SDS011;12936;52.006;4.350;2022-10-16T12:48:27;8.10;;;1.60;;
24859;SDS011;12936;52.006;4.350;2022-10-16T12:51:21;15.23;;;1.77;;
24859;SDS011;12936;52.006;4.350;2022-10-16T12:53:57;10.95;;;1.63;;
24859;SDS011;12936;52.006;4.350;2022-10-16T12:56:30;13.82;;;1.77;;
24859;SDS011;12936;52.006;4.350;2022-10-16T12:59:04;11.43;;;1.88;;
24859;SDS011;12936;52.006;4.350;2022-10-16T13:01:38;7.47;;;1.38;;
24859;SDS011;12936;52.006;4.350;2022-10-16T13:04:21;7.82;;;1.63;;
24859;SDS011;12936;52.006;4.350;2022-10-16T13:06:53;10.18;;;1.73;;
24859;SDS011;12936;52.006;4.350;2022-10-16T13:09:28;9.65;;;1.77;;
24859;SDS011;12936;52.006;4.350;2022-10-16T13:12:23;11.32;;;1.85;;
24859;SDS011;12936;52.006;4.350;2022-10-16T13:15:00;12.90;;;1.80;;
24859;SDS011;12936;52.006;4.350;2022-10-16T13:17:31;14.23;;;1.85;;
24859;SDS011;12936;52.006;4.350;2022-10-16T13:20:05;8.10;;;1.52;;
24859;SDS011;12936;52.006;4.350;2022-10-16T13:22:39;7.85;;;1.58;;
24859;SDS011;12936;52.006;4.350;2022-10-16T13:25:17;11.60;;;1.58;;
24859;SDS011;12936;52.006;4.350;2022-10-16T13:27:51;8.35;;;1.83;;
24859;SDS011;12936;52.006;4.350;2022-10-16T13:30:20;8.95;;;1.58;;
24859;SDS011;12936;52.006;4.350;2022-10-16T13:32:57;13.60;;;1.67;;
24859;SDS011;12936;52.006;4.350;2022-10-16T13:35:27;11.57;;;1.95;;
24859;SDS011;12936;52.006;4.350;2022-10-16T13:38:06;10.07;;;1.73;;
24859;SDS011;12936;52.006;4.350;2022-10-16T13:40:47;9.27;;;1.58;;
24859;SDS011;12936;52.006;4.350;2022-10-16T13:43:18;9.77;;;1.75;;
24859;SDS011;12936;52.006;4.350;2022-10-16T13:45:54;10.73;;;1.83;;
24859;SDS011;12936;52.006;4.350;2022-10-16T13:48:23;11.18;;;1.70;;
24859;SDS011;12936;52.006;4.350;2022-10-16T13:51:02;10.48;;;2.00;;
24859;SDS011;12936;52.006;4.350;2022-10-16T13:53:31;8.38;;;1.60;;
24859;SDS011;12936;52.006;4.350;2022-10-16T13:56:00;7.60;;;1.90;;
24859;SDS011;12936;52.006;4.350;2022-10-16T13:58:30;9.57;;;1.63;;
24859;SDS011;12936;52.006;4.350;2022-10-16T14:01:00;8.32;;;1.40;;
24859;SDS011;12936;52.006;4.350;2022-10-16T14:03:29;9.25;;;1.88;;
24859;SDS011;12936;52.006;4.350;2022-10-16T14:05:59;9.65;;;2.03;;
24859;SDS011;12936;52.006;4.350;2022-10-16T14:08:28;9.25;;;1.63;;
24859;SDS011;12936;52.006;4.350;2022-10-16T14:10:58;7.50;;;1.60;;
24859;SDS011;12936;52.006;4.350;2022-10-16T14:13:29;9.48;;;1.58;;
24859;SDS011;12936;52.006;4.350;2022-10-16T14:16:00;10.75;;;1.75;;
24859;SDS011;12936;52.006;4.350;2022-10-16T14:18:30;9.10;;;1.77;;
24859;SDS011;12936;52.006;4.350;2022-10-16T14:21:04;14.65;;;2.17;;
24859;SDS011;12936;52.006;4.350;2022-10-16T14:23:34;12.05;;;1.55;;
24859;SDS011;12936;52.006;4.350;2022-10-16T14:26:14;13.05;;;2.20;;
24859;SDS011;12936;52.006;4.350;2022-10-16T14:28:42;10.60;;;1.70;;
24859;SDS011;12936;52.006;4.350;2022-10-16T14:33:59;11.30;;;1.80;;
24859;SDS011;12936;52.006;4.350;2022-10-16T14:36:28;11.65;;;2.20;;
24859;SDS011;12936;52.006;4.350;2022-10-16T14:38:58;11.85;;;2.00;;
24859;SDS011;12936;52.006;4.350;2022-10-16T14:41:27;9.18;;;2.28;;
24859;SDS011;12936;52.006;4.350;2022-10-16T14:43:56;13.20;;;2.22;;
24859;SDS011;12936;52.006;4.350;2022-10-16T14:46:28;10.27;;;1.77;;
24859;SDS011;12936;52.006;4.350;2022-10-16T14:49:03;11.95;;;1.70;;
24859;SDS011;12936;52.006;4.350;2022-10-16T14:51:32;9.27;;;2.20;;
24859;SDS011;12936;52.006;4.350;2022-10-16T14:54:01;9.88;;;1.80;;
24859;SDS011;12936;52.006;4.350;2022-10-16T14:56:30;9.27;;;1.77;;
24859;SDS011;12936;52.006;4.350;2022-10-16T14:58:59;9.13;;;1.70;;
24859;SDS011;12936;52.006;4.350;2022-10-16T15:01:28;11.52;;;2.17;;
24859;SDS011;12936;52.006;4.350;2022-10-16T15:03:56;18.38;;;1.88;;
24859;SDS011;12936;52.006;4.350;2022-10-16T15:06:26;10.48;;;2.22;;
24859;SDS011;12936;52.006;4.350;2022-10-16T15:08:54;15.88;;;2.38;;
24859;SDS011;12936;52.006;4.350;2022-10-16T15:11:22;12.55;;;1.80;;